sensor_id;sensor_type;location;lat;lon;timestamp;temperature;humidity
31391;DHT22;18022;45.492;11.548;2022-12-07T00:01:12;2.90;99.90
31391;DHT22;18022;45.492;11.548;2022-12-07T00:03:39;3.10;99.90
31391;DHT22;18022;45.492;11.548;2022-12-07T00:06:07;3.20;99.90
31391;DHT22;18022;45.492;11.548;2022-12-07T00:08:34;3.40;99.90
31391;DHT22;18022;45.492;11.548;2022-12-07T00:11:01;3.40;99.90
31391;DHT22;18022;45.492;11.548;2022-12-07T00:13:27;3.50;99.90
31391;DHT22;18022;45.492;11.548;2022-12-07T00:15:53;3.30;99.90
31391;DHT22;18022;45.492;11.548;2022-12-07T00:18:19;3.20;99.90
31391;DHT22;18022;45.492;11.548;2022-12-07T00:20:44;3.10;99.90
31391;DHT22;18022;45.492;11.548;2022-12-07T00:23:10;3.20;99.90
31391;DHT22;18022;45.492;11.548;2022-12-07T00:25:36;3.40;99.90
31391;DHT22;18022;45.492;11.548;2022-12-07T00:28:01;3.40;99.90
31391;DHT22;18022;45.492;11.548;2022-12-07T00:30:27;3.40;99.90
31391;DHT22;18022;45.492;11.548;2022-12-07T00:32:53;3.20;99.90
31391;DHT22;18022;45.492;11.548;2022-12-07T00:35:18;3.10;99.90
31391;DHT22;18022;45.492;11.548;2022-12-07T00:37:44;3.10;99.90
31391;DHT22;18022;45.492;11.548;2022-12-07T00:40:10;3.20;99.90
31391;DHT22;18022;45.492;11.548;2022-12-07T00:42:36;3.20;99.90
31391;DHT22;18022;45.492;11.548;2022-12-07T00:45:01;3.30;99.90
31391;DHT22;18022;45.492;11.548;2022-12-07T00:47:27;3.10;99.90
31391;DHT22;18022;45.492;11.548;2022-12-07T00:49:53;2.90;99.90
31391;DHT22;18022;45.492;11.548;2022-12-07T00:52:18;2.80;99.90
31391;DHT22;18022;45.492;11.548;2022-12-07T00:54:44;2.50;99.90
31391;DHT22;18022;45.492;11.548;2022-12-07T00:57:10;2.70;99.90
31391;DHT22;18022;45.492;11.548;2022-12-07T00:59:35;2.80;99.90
31391;DHT22;18022;45.492;11.548;2022-12-07T01:02:01;2.80;99.90
31391;DHT22;18022;45.492;11.548;2022-12-07T01:04:27;2.70;99.90
31391;DHT22;18022;45.492;11.548;2022-12-07T01:06:52;2.70;99.90
31391;DHT22;18022;45.492;11.548;2022-12-07T01:09:18;2.70;99.90
31391;DHT22;18022;45.492;11.548;2022-12-07T01:11:44;2.60;99.90
31391;DHT22;18022;45.492;11.548;2022-12-07T01:14:09;2.60;99.90
31391;DHT22;18022;45.492;11.548;2022-12-07T01:16:36;2.50;99.90
31391;DHT22;18022;45.492;11.548;2022-12-07T01:19:03;2.50;99.90
31391;DHT22;18022;45.492;11.548;2022-12-07T01:21:32;2.60;99.90
31391;DHT22;18022;45.492;11.548;2022-12-07T01:24:04;2.60;99.90
31391;DHT22;18022;45.492;11.548;2022-12-07T01:26:30;2.70;99.90
31391;DHT22;18022;45.492;11.548;2022-12-07T01:28:56;2.90;99.90
31391;DHT22;18022;45.492;11.548;2022-12-07T01:31:25;2.80;99.90
31391;DHT22;18022;45.492;11.548;2022-12-07T01:33:54;2.80;99.90
31391;DHT22;18022;45.492;11.548;2022-12-07T01:38:51;2.50;99.90
31391;DHT22;18022;45.492;11.548;2022-12-07T01:41:20;2.40;99.90
31391;DHT22;18022;45.492;11.548;2022-12-07T01:46:33;2.40;99.90
31391;DHT22;18022;45.492;11.548;2022-12-07T01:48:59;2.60;99.90
31391;DHT22;18022;45.492;11.548;2022-12-07T01:51:25;2.70;99.90
31391;DHT22;18022;45.492;11.548;2022-12-07T01:53:52;2.50;99.90
31391;DHT22;18022;45.492;11.548;2022-12-07T01:56:20;2.50;99.90
31391;DHT22;18022;45.492;11.548;2022-12-07T01:58:48;2.50;99.90
31391;DHT22;18022;45.492;11.548;2022-12-07T02:01:14;2.70;99.90
31391;DHT22;18022;45.492;11.548;2022-12-07T02:03:42;2.60;99.90
31391;DHT22;18022;45.492;11.548;2022-12-07T02:06:08;2.50;99.90
31391;DHT22;18022;45.492;11.548;2022-12-07T02:08:35;2.40;99.90
31391;DHT22;18022;45.492;11.548;2022-12-07T02:11:02;2.50;99.90
31391;DHT22;18022;45.492;11.548;2022-12-07T02:13:31;2.60;99.90
31391;DHT22;18022;45.492;11.548;2022-12-07T02:21:17;2.50;99.90
31391;DHT22;18022;45.492;11.548;2022-12-07T02:27:01;2.80;99.90
31391;DHT22;18022;45.492;11.548;2022-12-07T02:30:07;2.70;99.90
31391;DHT22;18022;45.492;11.548;2022-12-07T02:35:28;2.80;99.90
31391;DHT22;18022;45.492;11.548;2022-12-07T02:40:46;2.60;99.90
31391;DHT22;18022;45.492;11.548;2022-12-07T02:43:26;2.80;99.90
31391;DHT22;18022;45.492;11.548;2022-12-07T02:46:16;2.90;99.90
31391;DHT22;18022;45.492;11.548;2022-12-07T02:48:40;2.80;99.90
31391;DHT22;18022;45.492;11.548;2022-12-07T02:51:06;2.80;99.90
31391;DHT22;18022;45.492;11.548;2022-12-07T02:58:52;2.90;99.90
31391;DHT22;18022;45.492;11.548;2022-12-07T03:06:47;2.90;99.90
31391;DHT22;18022;45.492;11.548;2022-12-07T03:09:21;2.80;99.90
31391;DHT22;18022;45.492;11.548;2022-12-07T03:11:54;2.80;99.90
31391;DHT22;18022;45.492;11.548;2022-12-07T03:14:31;2.80;99.90
31391;DHT22;18022;45.492;11.548;2022-12-07T03:17:24;2.90;99.90
31391;DHT22;18022;45.492;11.548;2022-12-07T03:19:54;2.90;99.90
31391;DHT22;18022;45.492;11.548;2022-12-07T03:22:21;3.00;99.90
31391;DHT22;18022;45.492;11.548;2022-12-07T03:24:54;3.00;99.90
31391;DHT22;18022;45.492;11.548;2022-12-07T03:29:54;3.00;99.90
31391;DHT22;18022;45.492;11.548;2022-12-07T03:37:35;3.30;99.90
31391;DHT22;18022;45.492;11.548;2022-12-07T03:40:23;3.30;99.90
31391;DHT22;18022;45.492;11.548;2022-12-07T03:42:50;3.30;99.90
31391;DHT22;18022;45.492;11.548;2022-12-07T03:45:16;3.50;99.90
31391;DHT22;18022;45.492;11.548;2022-12-07T03:50:14;3.50;99.90
31391;DHT22;18022;45.492;11.548;2022-12-07T03:52:59;3.40;99.90
31391;DHT22;18022;45.492;11.548;2022-12-07T03:55:33;3.50;99.90
31391;DHT22;18022;45.492;11.548;2022-12-07T03:58:03;3.50;99.90
31391;DHT22;18022;45.492;11.548;2022-12-07T04:00:29;3.60;99.90
31391;DHT22;18022;45.492;11.548;2022-12-07T04:02:55;3.60;99.90
31391;DHT22;18022;45.492;11.548;2022-12-07T04:05:21;3.70;99.90
31391;DHT22;18022;45.492;11.548;2022-12-07T04:07:47;3.60;99.90
31391;DHT22;18022;45.492;11.548;2022-12-07T04:10:13;3.60;99.90
31391;DHT22;18022;45.492;11.548;2022-12-07T04:12:39;3.30;99.90
31391;DHT22;18022;45.492;11.548;2022-12-07T04:15:06;3.30;99.90
31391;DHT22;18022;45.492;11.548;2022-12-07T04:17:32;3.40;99.90
31391;DHT22;18022;45.492;11.548;2022-12-07T04:19:57;3.40;99.90
31391;DHT22;18022;45.492;11.548;2022-12-07T04:22:23;3.50;99.90
31391;DHT22;18022;45.492;11.548;2022-12-07T04:24:49;3.50;99.90
31391;DHT22;18022;45.492;11.548;2022-12-07T04:27:14;3.50;99.90
31391;DHT22;18022;45.492;11.548;2022-12-07T04:29:40;3.60;99.90
31391;DHT22;18022;45.492;11.548;2022-12-07T04:32:06;3.50;99.90
31391;DHT22;18022;45.492;11.548;2022-12-07T04:34:31;3.60;99.90
31391;DHT22;18022;45.492;11.548;2022-12-07T04:36:57;3.60;99.90
31391;DHT22;18022;45.492;11.548;2022-12-07T04:39:30;3.60;99.90
31391;DHT22;18022;45.492;11.548;2022-12-07T04:41:57;3.70;99.90
31391;DHT22;18022;45.492;11.548;2022-12-07T04:44:24;3.70;99.90
31391;DHT22;18022;45.492;11.548;2022-12-07T04:46:50;3.50;99.90
31391;DHT22;18022;45.492;11.548;2022-12-07T04:49:16;3.30;99.90
31391;DHT22;18022;45.492;11.548;2022-12-07T04:51:43;3.00;99.90
31391;DHT22;18022;45.492;11.548;2022-12-07T04:54:09;3.00;99.90
31391;DHT22;18022;45.492;11.548;2022-12-07T04:56:35;3.00;99.90
31391;DHT22;18022;45.492;11.548;2022-12-07T04:59:01;3.10;99.90
31391;DHT22;18022;45.492;11.548;2022-12-07T05:01:27;3.10;99.90
31391;DHT22;18022;45.492;11.548;2022-12-07T05:03:52;3.00;99.90
31391;DHT22;18022;45.492;11.548;2022-12-07T05:06:18;3.00;99.90
31391;DHT22;18022;45.492;11.548;2022-12-07T05:08:44;3.00;99.90
31391;DHT22;18022;45.492;11.548;2022-12-07T05:11:10;2.90;99.90
31391;DHT22;18022;45.492;11.548;2022-12-07T05:14:00;2.90;99.90
31391;DHT22;18022;45.492;11.548;2022-12-07T05:16:25;2.90;99.90
31391;DHT22;18022;45.492;11.548;2022-12-07T05:18:51;2.90;99.90
31391;DHT22;18022;45.492;11.548;2022-12-07T05:21:17;3.00;99.90
31391;DHT22;18022;45.492;11.548;2022-12-07T05:23:43;3.10;99.90
31391;DHT22;18022;45.492;11.548;2022-12-07T05:26:09;3.10;99.90
31391;DHT22;18022;45.492;11.548;2022-12-07T05:28:34;3.00;99.90
31391;DHT22;18022;45.492;11.548;2022-12-07T05:31:00;2.90;99.90
31391;DHT22;18022;45.492;11.548;2022-12-07T05:33:26;2.90;99.90
31391;DHT22;18022;45.492;11.548;2022-12-07T05:35:51;3.00;99.90
31391;DHT22;18022;45.492;11.548;2022-12-07T05:38:17;3.00;99.90
31391;DHT22;18022;45.492;11.548;2022-12-07T05:40:43;3.10;99.90
31391;DHT22;18022;45.492;11.548;2022-12-07T05:43:08;3.20;99.90
31391;DHT22;18022;45.492;11.548;2022-12-07T05:45:34;3.20;99.90
31391;DHT22;18022;45.492;11.548;2022-12-07T05:48:00;3.30;99.90
31391;DHT22;18022;45.492;11.548;2022-12-07T05:50:25;3.20;99.90
31391;DHT22;18022;45.492;11.548;2022-12-07T05:52:51;3.20;99.90
31391;DHT22;18022;45.492;11.548;2022-12-07T05:55:17;3.20;99.90
31391;DHT22;18022;45.492;11.548;2022-12-07T05:57:43;3.30;99.90
31391;DHT22;18022;45.492;11.548;2022-12-07T06:00:28;3.30;99.90
31391;DHT22;18022;45.492;11.548;2022-12-07T06:02:54;3.20;99.90
31391;DHT22;18022;45.492;11.548;2022-12-07T06:05:20;3.20;99.90
31391;DHT22;18022;45.492;11.548;2022-12-07T06:07:45;3.30;99.90
31391;DHT22;18022;45.492;11.548;2022-12-07T06:10:11;3.40;99.90
31391;DHT22;18022;45.492;11.548;2022-12-07T06:12:37;3.50;99.90
31391;DHT22;18022;45.492;11.548;2022-12-07T06:15:05;3.40;99.90
31391;DHT22;18022;45.492;11.548;2022-12-07T06:17:31;3.00;99.90
31391;DHT22;18022;45.492;11.548;2022-12-07T06:19:57;2.80;99.90
31391;DHT22;18022;45.492;11.548;2022-12-07T06:22:22;3.00;99.90
31391;DHT22;18022;45.492;11.548;2022-12-07T06:24:48;3.00;99.90
31391;DHT22;18022;45.492;11.548;2022-12-07T06:27:14;3.00;99.90
31391;DHT22;18022;45.492;11.548;2022-12-07T06:29:40;3.00;99.90
31391;DHT22;18022;45.492;11.548;2022-12-07T06:32:06;3.20;99.90
31391;DHT22;18022;45.492;11.548;2022-12-07T06:34:31;4.30;99.90
31391;DHT22;18022;45.492;11.548;2022-12-07T06:36:57;4.40;99.90
31391;DHT22;18022;45.492;11.548;2022-12-07T06:39:25;4.50;99.90
31391;DHT22;18022;45.492;11.548;2022-12-07T06:41:52;4.50;99.90
31391;DHT22;18022;45.492;11.548;2022-12-07T06:44:18;4.00;99.90
31391;DHT22;18022;45.492;11.548;2022-12-07T06:46:44;3.40;99.90
31391;DHT22;18022;45.492;11.548;2022-12-07T06:49:09;3.40;99.90
31391;DHT22;18022;45.492;11.548;2022-12-07T06:51:35;3.50;99.90
31391;DHT22;18022;45.492;11.548;2022-12-07T06:54:03;3.60;99.90
31391;DHT22;18022;45.492;11.548;2022-12-07T06:56:29;3.40;99.90
31391;DHT22;18022;45.492;11.548;2022-12-07T06:58:55;3.20;99.90
31391;DHT22;18022;45.492;11.548;2022-12-07T07:01:20;3.50;99.90
31391;DHT22;18022;45.492;11.548;2022-12-07T07:03:46;3.20;99.90
31391;DHT22;18022;45.492;11.548;2022-12-07T07:06:13;3.60;99.90
31391;DHT22;18022;45.492;11.548;2022-12-07T07:08:39;4.00;99.90
31391;DHT22;18022;45.492;11.548;2022-12-07T07:11:05;3.30;99.90
31391;DHT22;18022;45.492;11.548;2022-12-07T07:13:31;2.90;99.90
31391;DHT22;18022;45.492;11.548;2022-12-07T07:15:57;2.80;99.90
31391;DHT22;18022;45.492;11.548;2022-12-07T07:18:24;2.90;99.90
31391;DHT22;18022;45.492;11.548;2022-12-07T07:20:51;3.00;99.90
31391;DHT22;18022;45.492;11.548;2022-12-07T07:23:17;3.10;99.90
31391;DHT22;18022;45.492;11.548;2022-12-07T07:25:43;3.20;99.90
31391;DHT22;18022;45.492;11.548;2022-12-07T07:28:09;3.20;99.90
31391;DHT22;18022;45.492;11.548;2022-12-07T07:30:35;3.20;99.90
31391;DHT22;18022;45.492;11.548;2022-12-07T07:33:01;3.30;99.90
31391;DHT22;18022;45.492;11.548;2022-12-07T07:35:28;3.10;99.90
31391;DHT22;18022;45.492;11.548;2022-12-07T07:37:55;2.90;99.90
31391;DHT22;18022;45.492;11.548;2022-12-07T07:40:21;2.90;99.90
31391;DHT22;18022;45.492;11.548;2022-12-07T07:42:48;2.80;99.90
31391;DHT22;18022;45.492;11.548;2022-12-07T07:45:14;2.70;99.90
31391;DHT22;18022;45.492;11.548;2022-12-07T07:47:40;2.70;99.90
31391;DHT22;18022;45.492;11.548;2022-12-07T07:50:06;2.80;99.90
31391;DHT22;18022;45.492;11.548;2022-12-07T07:52:32;2.90;99.90
31391;DHT22;18022;45.492;11.548;2022-12-07T07:54:57;2.80;99.90
31391;DHT22;18022;45.492;11.548;2022-12-07T07:57:23;3.00;99.90
31391;DHT22;18022;45.492;11.548;2022-12-07T07:59:49;3.20;99.90
31391;DHT22;18022;45.492;11.548;2022-12-07T08:02:17;3.30;99.90
31391;DHT22;18022;45.492;11.548;2022-12-07T08:04:44;3.30;99.90
31391;DHT22;18022;45.492;11.548;2022-12-07T08:07:11;3.30;99.90
31391;DHT22;18022;45.492;11.548;2022-12-07T08:09:38;3.20;99.90
31391;DHT22;18022;45.492;11.548;2022-12-07T08:12:04;3.10;99.90
31391;DHT22;18022;45.492;11.548;2022-12-07T08:14:30;3.00;99.90
31391;DHT22;18022;45.492;11.548;2022-12-07T08:16:56;3.10;99.90
31391;DHT22;18022;45.492;11.548;2022-12-07T08:19:22;3.30;99.90
31391;DHT22;18022;45.492;11.548;2022-12-07T08:21:47;3.60;99.90
31391;DHT22;18022;45.492;11.548;2022-12-07T08:24:14;3.50;99.90
31391;DHT22;18022;45.492;11.548;2022-12-07T08:26:40;3.80;99.90
31391;DHT22;18022;45.492;11.548;2022-12-07T08:29:05;4.00;99.90
31391;DHT22;18022;45.492;11.548;2022-12-07T08:31:31;4.10;99.90
31391;DHT22;18022;45.492;11.548;2022-12-07T08:33:57;4.20;99.90
31391;DHT22;18022;45.492;11.548;2022-12-07T08:36:23;4.30;99.90
31391;DHT22;18022;45.492;11.548;2022-12-07T08:38:49;4.50;99.90
31391;DHT22;18022;45.492;11.548;2022-12-07T08:41:15;4.60;99.90
31391;DHT22;18022;45.492;11.548;2022-12-07T08:43:41;4.70;99.90
31391;DHT22;18022;45.492;11.548;2022-12-07T08:48:55;4.80;99.90
31391;DHT22;18022;45.492;11.548;2022-12-07T08:51:22;4.70;99.90
31391;DHT22;18022;45.492;11.548;2022-12-07T08:53:50;4.90;99.90
31391;DHT22;18022;45.492;11.548;2022-12-07T08:56:16;4.90;99.90
31391;DHT22;18022;45.492;11.548;2022-12-07T08:58:42;5.00;99.90
31391;DHT22;18022;45.492;11.548;2022-12-07T09:01:08;5.20;99.90
31391;DHT22;18022;45.492;11.548;2022-12-07T09:03:34;5.40;99.90
31391;DHT22;18022;45.492;11.548;2022-12-07T09:06:00;5.60;99.90
31391;DHT22;18022;45.492;11.548;2022-12-07T09:08:39;5.70;99.90
31391;DHT22;18022;45.492;11.548;2022-12-07T09:11:06;5.80;99.90
31391;DHT22;18022;45.492;11.548;2022-12-07T09:13:32;6.00;99.90
31391;DHT22;18022;45.492;11.548;2022-12-07T09:15:58;6.30;99.90
31391;DHT22;18022;45.492;11.548;2022-12-07T09:18:23;6.50;99.90
31391;DHT22;18022;45.492;11.548;2022-12-07T09:20:50;6.70;99.90
31391;DHT22;18022;45.492;11.548;2022-12-07T09:23:16;6.80;99.90
31391;DHT22;18022;45.492;11.548;2022-12-07T09:25:42;7.00;99.90
31391;DHT22;18022;45.492;11.548;2022-12-07T09:28:08;7.20;99.90
31391;DHT22;18022;45.492;11.548;2022-12-07T09:30:34;7.30;99.90
31391;DHT22;18022;45.492;11.548;2022-12-07T09:32:59;7.20;99.90
31391;DHT22;18022;45.492;11.548;2022-12-07T09:35:26;7.40;99.90
31391;DHT22;18022;45.492;11.548;2022-12-07T09:37:51;7.70;99.90
31391;DHT22;18022;45.492;11.548;2022-12-07T09:40:20;7.90;99.90
31391;DHT22;18022;45.492;11.548;2022-12-07T09:42:49;8.00;99.90
31391;DHT22;18022;45.492;11.548;2022-12-07T09:45:25;8.10;99.90
31391;DHT22;18022;45.492;11.548;2022-12-07T09:47:52;8.40;99.90
31391;DHT22;18022;45.492;11.548;2022-12-07T09:50:24;8.30;99.90
31391;DHT22;18022;45.492;11.548;2022-12-07T09:52:52;8.20;99.90
31391;DHT22;18022;45.492;11.548;2022-12-07T09:55:27;8.40;99.90
31391;DHT22;18022;45.492;11.548;2022-12-07T09:57:54;8.50;99.90
31391;DHT22;18022;45.492;11.548;2022-12-07T10:00:21;8.70;99.90
31391;DHT22;18022;45.492;11.548;2022-12-07T10:05:36;9.10;99.90
31391;DHT22;18022;45.492;11.548;2022-12-07T10:08:03;9.20;99.90
31391;DHT22;18022;45.492;11.548;2022-12-07T10:10:31;9.40;99.90
31391;DHT22;18022;45.492;11.548;2022-12-07T10:13:11;9.30;99.90
31391;DHT22;18022;45.492;11.548;2022-12-07T10:15:57;9.50;99.90
31391;DHT22;18022;45.492;11.548;2022-12-07T10:18:37;9.70;99.90
31391;DHT22;18022;45.492;11.548;2022-12-07T10:21:17;9.90;99.90
31391;DHT22;18022;45.492;11.548;2022-12-07T10:24:04;10.10;99.90
31391;DHT22;18022;45.492;11.548;2022-12-07T10:27:09;10.10;99.90
31391;DHT22;18022;45.492;11.548;2022-12-07T10:29:36;10.10;99.90
31391;DHT22;18022;45.492;11.548;2022-12-07T10:34:35;10.30;99.90
31391;DHT22;18022;45.492;11.548;2022-12-07T10:42:19;10.40;99.90
31391;DHT22;18022;45.492;11.548;2022-12-07T10:44:46;10.40;99.90
31391;DHT22;18022;45.492;11.548;2022-12-07T10:50:07;10.70;99.90
31391;DHT22;18022;45.492;11.548;2022-12-07T11:01:25;11.10;99.90
31391;DHT22;18022;45.492;11.548;2022-12-07T11:07:04;11.30;99.90
31391;DHT22;18022;45.492;11.548;2022-12-07T11:15:04;11.40;99.90
31391;DHT22;18022;45.492;11.548;2022-12-07T11:22:51;11.20;99.90
31391;DHT22;18022;45.492;11.548;2022-12-07T11:31:03;11.40;99.90
31391;DHT22;18022;45.492;11.548;2022-12-07T11:33:33;11.50;99.90
31391;DHT22;18022;45.492;11.548;2022-12-07T11:38:47;11.70;99.90
31391;DHT22;18022;45.492;11.548;2022-12-07T11:41:24;11.70;99.90
31391;DHT22;18022;45.492;11.548;2022-12-07T11:43:59;11.70;99.90
31391;DHT22;18022;45.492;11.548;2022-12-07T11:49:27;12.00;99.90
31391;DHT22;18022;45.492;11.548;2022-12-07T11:52:02;12.20;99.90
31391;DHT22;18022;45.492;11.548;2022-12-07T11:54:36;12.20;99.90
31391;DHT22;18022;45.492;11.548;2022-12-07T11:57:12;12.20;99.90
31391;DHT22;18022;45.492;11.548;2022-12-07T11:59:43;12.30;97.30
31391;DHT22;18022;45.492;11.548;2022-12-07T12:02:14;12.30;97.50
31391;DHT22;18022;45.492;11.548;2022-12-07T12:04:51;12.40;98.30
31391;DHT22;18022;45.492;11.548;2022-12-07T12:07:22;12.40;99.10
31391;DHT22;18022;45.492;11.548;2022-12-07T12:09:55;12.40;99.10
31391;DHT22;18022;45.492;11.548;2022-12-07T12:23:01;12.70;98.40
31391;DHT22;18022;45.492;11.548;2022-12-07T12:25:45;12.60;98.60
31391;DHT22;18022;45.492;11.548;2022-12-07T12:31:17;12.70;96.80
31391;DHT22;18022;45.492;11.548;2022-12-07T12:34:00;12.60;97.00
31391;DHT22;18022;45.492;11.548;2022-12-07T12:39:14;12.80;96.70
31391;DHT22;18022;45.492;11.548;2022-12-07T12:51:54;13.00;98.20
31391;DHT22;18022;45.492;11.548;2022-12-07T12:57:30;12.80;98.20
31391;DHT22;18022;45.492;11.548;2022-12-07T12:59:58;12.90;98.40
31391;DHT22;18022;45.492;11.548;2022-12-07T13:02:33;12.80;98.30
31391;DHT22;18022;45.492;11.548;2022-12-07T13:15:36;12.40;97.80
31391;DHT22;18022;45.492;11.548;2022-12-07T13:26:12;12.20;97.90
31391;DHT22;18022;45.492;11.548;2022-12-07T13:28:43;12.10;97.90
31391;DHT22;18022;45.492;11.548;2022-12-07T13:33:47;11.90;97.40
31391;DHT22;18022;45.492;11.548;2022-12-07T13:36:27;12.00;97.10
31391;DHT22;18022;45.492;11.548;2022-12-07T13:38:58;11.80;97.80
31391;DHT22;18022;45.492;11.548;2022-12-07T13:41:28;11.80;97.80
31391;DHT22;18022;45.492;11.548;2022-12-07T13:44:15;11.70;97.90
31391;DHT22;18022;45.492;11.548;2022-12-07T13:49:28;11.60;98.70
31391;DHT22;18022;45.492;11.548;2022-12-07T13:52:03;11.40;98.50
31391;DHT22;18022;45.492;11.548;2022-12-07T13:54:32;11.30;99.20
31391;DHT22;18022;45.492;11.548;2022-12-07T13:56:58;11.20;99.10
31391;DHT22;18022;45.492;11.548;2022-12-07T13:59:25;11.10;99.30
31391;DHT22;18022;45.492;11.548;2022-12-07T14:01:52;11.10;99.30
31391;DHT22;18022;45.492;11.548;2022-12-07T14:06:54;10.80;99.90
31391;DHT22;18022;45.492;11.548;2022-12-07T14:09:26;10.80;99.90
31391;DHT22;18022;45.492;11.548;2022-12-07T14:11:54;10.70;99.90
31391;DHT22;18022;45.492;11.548;2022-12-07T14:14:22;10.70;99.90
31391;DHT22;18022;45.492;11.548;2022-12-07T14:16:59;10.70;99.90
31391;DHT22;18022;45.492;11.548;2022-12-07T14:22:17;10.60;99.90
31391;DHT22;18022;45.492;11.548;2022-12-07T14:24:45;10.40;99.90
31391;DHT22;18022;45.492;11.548;2022-12-07T14:27:18;10.30;99.90
31391;DHT22;18022;45.492;11.548;2022-12-07T14:29:44;10.40;99.90
31391;DHT22;18022;45.492;11.548;2022-12-07T14:32:30;10.30;99.90
31391;DHT22;18022;45.492;11.548;2022-12-07T14:34:57;10.30;99.90
31391;DHT22;18022;45.492;11.548;2022-12-07T14:37:24;10.20;99.90
31391;DHT22;18022;45.492;11.548;2022-12-07T14:39:50;10.10;99.90
31391;DHT22;18022;45.492;11.548;2022-12-07T14:42:16;10.00;99.90
31391;DHT22;18022;45.492;11.548;2022-12-07T14:44:42;10.00;99.90
31391;DHT22;18022;45.492;11.548;2022-12-07T14:47:11;9.80;99.90
31391;DHT22;18022;45.492;11.548;2022-12-07T14:49:37;9.80;99.90
31391;DHT22;18022;45.492;11.548;2022-12-07T14:52:03;9.80;99.90
31391;DHT22;18022;45.492;11.548;2022-12-07T14:54:31;9.80;99.90
31391;DHT22;18022;45.492;11.548;2022-12-07T14:56:57;9.80;99.90
31391;DHT22;18022;45.492;11.548;2022-12-07T14:59:23;9.80;99.90
31391;DHT22;18022;45.492;11.548;2022-12-07T15:01:50;9.70;99.90
31391;DHT22;18022;45.492;11.548;2022-12-07T15:04:16;9.50;99.90
31391;DHT22;18022;45.492;11.548;2022-12-07T15:06:41;9.30;99.90
31391;DHT22;18022;45.492;11.548;2022-12-07T15:09:11;9.30;99.90
31391;DHT22;18022;45.492;11.548;2022-12-07T15:11:37;9.10;99.90
31391;DHT22;18022;45.492;11.548;2022-12-07T15:14:03;8.90;99.90
31391;DHT22;18022;45.492;11.548;2022-12-07T15:16:38;8.70;99.90
31391;DHT22;18022;45.492;11.548;2022-12-07T15:19:16;8.50;99.90
31391;DHT22;18022;45.492;11.548;2022-12-07T15:21:42;8.30;99.90
31391;DHT22;18022;45.492;11.548;2022-12-07T15:24:09;8.30;99.90
31391;DHT22;18022;45.492;11.548;2022-12-07T15:26:35;8.20;99.90
31391;DHT22;18022;45.492;11.548;2022-12-07T15:29:02;8.10;99.90
31391;DHT22;18022;45.492;11.548;2022-12-07T15:31:28;8.10;99.90
31391;DHT22;18022;45.492;11.548;2022-12-07T15:33:54;8.00;99.90
31391;DHT22;18022;45.492;11.548;2022-12-07T15:36:22;7.90;99.90
31391;DHT22;18022;45.492;11.548;2022-12-07T15:38:49;7.80;99.90
31391;DHT22;18022;45.492;11.548;2022-12-07T15:41:15;7.80;99.90
31391;DHT22;18022;45.492;11.548;2022-12-07T15:43:40;7.60;99.90
31391;DHT22;18022;45.492;11.548;2022-12-07T15:46:35;7.50;99.90
31391;DHT22;18022;45.492;11.548;2022-12-07T15:49:02;7.50;99.90
31391;DHT22;18022;45.492;11.548;2022-12-07T15:51:27;7.50;99.90
31391;DHT22;18022;45.492;11.548;2022-12-07T15:53:53;7.50;99.90
31391;DHT22;18022;45.492;11.548;2022-12-07T15:56:19;7.40;99.90
31391;DHT22;18022;45.492;11.548;2022-12-07T15:58:45;7.30;99.90
31391;DHT22;18022;45.492;11.548;2022-12-07T16:01:17;7.30;99.90
31391;DHT22;18022;45.492;11.548;2022-12-07T16:03:44;7.20;99.90
31391;DHT22;18022;45.492;11.548;2022-12-07T16:06:11;7.10;99.90
31391;DHT22;18022;45.492;11.548;2022-12-07T16:08:44;7.40;99.90
31391;DHT22;18022;45.492;11.548;2022-12-07T16:11:11;8.40;99.90
31391;DHT22;18022;45.492;11.548;2022-12-07T16:13:37;8.90;99.90
31391;DHT22;18022;45.492;11.548;2022-12-07T16:16:11;9.80;99.90
31391;DHT22;18022;45.492;11.548;2022-12-07T16:18:37;12.80;99.90
31391;DHT22;18022;45.492;11.548;2022-12-07T16:21:03;14.80;98.40
31391;DHT22;18022;45.492;11.548;2022-12-07T16:23:30;16.70;95.30
31391;DHT22;18022;45.492;11.548;2022-12-07T16:26:07;17.80;92.80
31391;DHT22;18022;45.492;11.548;2022-12-07T16:28:33;16.40;92.80
31391;DHT22;18022;45.492;11.548;2022-12-07T16:31:07;14.60;94.50
31391;DHT22;18022;45.492;11.548;2022-12-07T16:33:37;13.00;96.40
31391;DHT22;18022;45.492;11.548;2022-12-07T16:36:05;11.40;98.50
31391;DHT22;18022;45.492;11.548;2022-12-07T16:38:32;10.00;99.90
31391;DHT22;18022;45.492;11.548;2022-12-07T16:40:58;9.10;99.90
31391;DHT22;18022;45.492;11.548;2022-12-07T16:43:23;8.50;99.90
31391;DHT22;18022;45.492;11.548;2022-12-07T16:45:49;8.00;99.90
31391;DHT22;18022;45.492;11.548;2022-12-07T16:48:15;7.70;99.90
31391;DHT22;18022;45.492;11.548;2022-12-07T16:50:43;7.40;99.90
31391;DHT22;18022;45.492;11.548;2022-12-07T16:53:14;7.10;99.90
31391;DHT22;18022;45.492;11.548;2022-12-07T16:55:43;6.80;99.90
31391;DHT22;18022;45.492;11.548;2022-12-07T16:58:10;6.70;99.90
31391;DHT22;18022;45.492;11.548;2022-12-07T17:00:36;6.60;99.90
31391;DHT22;18022;45.492;11.548;2022-12-07T17:03:03;6.60;99.90
31391;DHT22;18022;45.492;11.548;2022-12-07T17:05:29;6.90;99.90
31391;DHT22;18022;45.492;11.548;2022-12-07T17:07:56;6.90;99.90
31391;DHT22;18022;45.492;11.548;2022-12-07T17:10:22;6.60;99.90
31391;DHT22;18022;45.492;11.548;2022-12-07T17:12:48;6.50;99.90
31391;DHT22;18022;45.492;11.548;2022-12-07T17:15:14;6.30;99.90
31391;DHT22;18022;45.492;11.548;2022-12-07T17:17:50;6.20;99.90
31391;DHT22;18022;45.492;11.548;2022-12-07T17:20:16;6.10;99.90
31391;DHT22;18022;45.492;11.548;2022-12-07T17:22:43;6.10;99.90
31391;DHT22;18022;45.492;11.548;2022-12-07T17:25:09;6.00;99.90
31391;DHT22;18022;45.492;11.548;2022-12-07T17:27:35;5.90;99.90
31391;DHT22;18022;45.492;11.548;2022-12-07T17:30:03;5.80;99.90
31391;DHT22;18022;45.492;11.548;2022-12-07T17:32:29;6.00;99.90
31391;DHT22;18022;45.492;11.548;2022-12-07T17:34:55;6.10;99.90
31391;DHT22;18022;45.492;11.548;2022-12-07T17:37:21;6.70;99.90
31391;DHT22;18022;45.492;11.548;2022-12-07T17:39:46;6.90;99.90
31391;DHT22;18022;45.492;11.548;2022-12-07T17:42:12;6.80;99.90
31391;DHT22;18022;45.492;11.548;2022-12-07T17:44:56;6.50;99.90
31391;DHT22;18022;45.492;11.548;2022-12-07T17:47:22;6.30;99.90
31391;DHT22;18022;45.492;11.548;2022-12-07T17:49:48;6.20;99.90
31391;DHT22;18022;45.492;11.548;2022-12-07T17:52:14;6.10;99.90
31391;DHT22;18022;45.492;11.548;2022-12-07T17:54:58;6.10;99.90
31391;DHT22;18022;45.492;11.548;2022-12-07T17:57:24;5.90;99.90
31391;DHT22;18022;45.492;11.548;2022-12-07T17:59:49;5.70;99.90
31391;DHT22;18022;45.492;11.548;2022-12-07T18:02:17;5.80;99.90
31391;DHT22;18022;45.492;11.548;2022-12-07T18:04:42;5.80;99.90